Time;durP1;ratioP1;P1;durP2;ratioP2;P2;SDS_P1;SDS_P2;PMS_P1;PMS_P2;Temp;Humidity;BMP_temperature;BMP_pressure;BME280_temperature;BME280_humidity;BME280_pressure;Samples;Min_cycle;Max_cycle;Signal;HPM_P1;HPM_P2
2021/06/02 00:04:44;;;;;;;3.00;0.88;;;;;;;;;;10150456;28;20049;-73
2021/06/02 00:09:40;;;;;;;1.35;0.70;;;;;;;;;;10153964;28;20149;-72
2021/06/02 00:14:37;;;;;;;2.15;0.80;;;;;;;;;;10155593;28;20046;-73
2021/06/02 00:19:34;;;;;;;3.20;1.08;;;;;;;;;;10152021;28;20039;-73
2021/06/02 00:24:30;;;;;;;3.63;0.98;;;;;;;;;;10154464;28;20046;-74
2021/06/02 00:29:30;;;;;;;2.72;0.80;;;;;;;;;;10156379;28;20130;-72
2021/06/02 00:34:27;;;;;;;2.90;1.00;;;;;;;;;;10156444;28;20042;-71
2021/06/02 00:39:23;;;;;;;3.95;1.00;;;;;;;;;;10158068;28;20074;-71
2021/06/02 00:44:19;;;;;;;4.57;1.15;;;;;;;;;;10166878;28;20042;-68
2021/06/02 00:49:23;;;;;;;2.97;0.90;;;;;;;;;;10158075;28;20046;-70
2021/06/02 00:54:19;;;;;;;;;;;;;;;;;;10143798;28;20100;-73
2021/06/02 00:59:23;;;;;;;4.07;1.30;;;;;;;;;;10153165;28;20494;-72
2021/06/02 01:04:23;;;;;;;2.70;0.73;;;;;;;;;;10134936;28;20133;-71
2021/06/02 01:09:24;;;;;;;4.10;0.88;;;;;;;;;;10152391;28;20042;-70
2021/06/02 01:14:21;;;;;;;2.85;0.60;;;;;;;;;;10151642;28;20062;-69
2021/06/02 01:19:22;;;;;;;2.55;0.75;;;;;;;;;;10153238;28;20084;-71
2021/06/02 01:24:19;;;;;;;2.88;0.70;;;;;;;;;;10159633;28;20082;-72
2021/06/02 01:29:15;;;;;;;5.60;1.42;;;;;;;;;;10162176;28;20038;-71
2021/06/02 01:34:11;;;;;;;3.22;1.00;;;;;;;;;;10149763;28;20066;-71
2021/06/02 01:39:28;;;;;;;6.18;1.23;;;;;;;;;;10167043;28;20058;-71
2021/06/02 01:44:43;;;;;;;3.15;0.88;;;;;;;;;;10157798;28;20141;-71
2021/06/02 01:49:58;;;;;;;2.03;0.70;;;;;;;;;;10163206;28;20559;-71
2021/06/02 01:55:18;;;;;;;2.03;0.77;;;;;;;;;;10152067;28;20137;-70
2021/06/02 02:00:33;;;;;;;5.25;1.52;;;;;;;;;;10157385;28;20086;-71
2021/06/02 02:05:41;;;;;;;3.13;0.95;;;;;;;;;;10173626;28;20139;-72
2021/06/02 02:10:48;;;;;;;2.78;0.80;;;;;;;;;;10169360;28;20046;-71
2021/06/02 02:15:53;;;;;;;3.38;1.08;;;;;;;;;;10167025;28;20065;-71
2021/06/02 02:21:10;;;;;;;1.95;0.80;;;;;;;;;;10169174;28;20817;-69
2021/06/02 02:26:17;;;;;;;2.22;1.02;;;;;;;;;;10163469;28;21540;-73
2021/06/02 02:31:13;;;;;;;2.25;0.80;;;;;;;;;;10154962;28;20481;-73
2021/06/02 02:36:26;;;;;;;2.70;0.70;;;;;;;;;;10143081;28;20053;-72
2021/06/02 02:41:22;;;;;;;3.10;0.90;;;;;;;;;;10156044;28;20138;-70
2021/06/02 02:46:30;;;;;;;3.20;1.10;;;;;;;;;;10155694;28;20464;-70
2021/06/02 02:51:26;;;;;;;2.33;1.00;;;;;;;;;;10151418;28;20073;-71
2021/06/02 02:56:29;;;;;;;2.65;0.98;;;;;;;;;;10143654;28;20499;-71
2021/06/02 03:01:37;;;;;;;4.87;1.10;;;;;;;;;;10149567;28;20100;-71
2021/06/02 03:06:41;;;;;;;3.83;1.20;;;;;;;;;;10153095;28;20079;-71
2021/06/02 03:11:38;;;;;;;4.13;1.00;;;;;;;;;;10150493;28;20065;-71
2021/06/02 03:16:36;;;;;;;6.40;0.90;;;;;;;;;;10149778;28;20489;-70
2021/06/02 03:21:55;;;;;;;4.05;1.27;;;;;;;;;;10141166;28;20094;-72
2021/06/02 03:26:58;;;;;;;19.30;1.80;;;;;;;;;;10163290;28;20108;-73
2021/06/02 03:32:13;;;;;;;3.85;1.08;;;;;;;;;;10143911;28;20092;-72
2021/06/02 03:37:09;;;;;;;3.17;1.40;;;;;;;;;;10155874;28;20069;-72
2021/06/02 03:42:21;;;;;;;3.45;1.33;;;;;;;;;;10145968;28;20603;-69
2021/06/02 03:47:17;;;;;;;2.60;1.10;;;;;;;;;;10149915;28;20132;-71
2021/06/02 03:52:39;;;;;;;3.70;1.63;;;;;;;;;;10155970;28;20389;-72
2021/06/02 03:57:43;;;;;;;3.55;1.17;;;;;;;;;;10130897;28;20055;-72
2021/06/02 04:02:53;;;;;;;5.97;1.42;;;;;;;;;;10160133;28;20136;-73
2021/06/02 04:08:08;;;;;;;5.03;1.55;;;;;;;;;;10148243;28;20042;-72
2021/06/02 04:13:12;;;;;;;4.10;1.40;;;;;;;;;;10146639;28;20050;-72
2021/06/02 04:18:09;;;;;;;5.43;1.85;;;;;;;;;;10149496;28;20104;-72
2021/06/02 04:23:06;;;;;;;3.88;1.52;;;;;;;;;;10148938;28;20049;-72
2021/06/02 04:28:02;;;;;;;3.75;1.58;;;;;;;;;;10116571;28;20456;-73
2021/06/02 04:33:00;;;;;;;5.93;1.75;;;;;;;;;;10148087;28;20042;-69
2021/06/02 04:37:56;;;;;;;7.97;2.10;;;;;;;;;;10164265;28;20443;-69
2021/06/02 04:42:54;;;;;;;6.65;2.28;;;;;;;;;;10140803;28;20054;-70
2021/06/02 04:47:51;;;;;;;6.50;2.25;;;;;;;;;;10144045;28;20466;-67
2021/06/02 04:53:06;;;;;;;8.15;2.17;;;;;;;;;;10162315;28;20038;-67
2021/06/02 04:58:21;;;;;;;5.18;1.90;;;;;;;;;;10145138;28;20067;-68
2021/06/02 05:03:20;;;;;;;11.80;2.85;;;;;;;;;;10137660;28;20129;-68
2021/06/02 05:08:35;;;;;;;5.93;2.05;;;;;;;;;;10141039;28;20050;-68
2021/06/02 05:13:48;;;;;;;7.80;2.63;;;;;;;;;;10138871;28;20046;-68
2021/06/02 05:18:52;;;;;;;5.77;2.23;;;;;;;;;;10132488;28;20081;-68
2021/06/02 05:23:48;;;;;;;;;;;;;;;;;;10118449;28;20481;-65
2021/06/02 05:28:47;;;;;;;7.18;2.72;;;;;;;;;;10128926;28;20387;-65
2021/06/02 05:33:56;;;;;;;9.23;2.40;;;;;;;;;;10117689;28;20520;-69
2021/06/02 05:38:52;;;;;;;10.07;2.38;;;;;;;;;;10120258;28;20460;-69
2021/06/02 05:44:07;;;;;;;7.78;2.53;;;;;;;;;;10123655;28;20084;-69
2021/06/02 05:49:23;;;;;;;6.53;2.50;;;;;;;;;;10115515;28;20070;-69
2021/06/02 05:54:38;;;;;;;6.13;2.50;;;;;;;;;;10121766;28;20070;-69
2021/06/02 05:59:51;;;;;;;6.57;2.75;;;;;;;;;;10122958;28;20039;-69
2021/06/02 06:05:02;;;;;;;5.30;2.42;;;;;;;;;;10136886;28;20137;-70
2021/06/02 06:10:09;;;;;;;8.05;2.90;;;;;;;;;;10146993;28;20074;-69
2021/06/02 06:15:24;;;;;;;6.78;2.75;;;;;;;;;;10154640;28;20117;-69
2021/06/02 06:20:32;;;;;;;9.13;2.83;;;;;;;;;;10157574;28;20084;-68
2021/06/02 06:25:33;;;;;;;6.80;2.33;;;;;;;;;;10152611;28;20457;-69
2021/06/02 06:30:31;;;;;;;5.85;2.17;;;;;;;;;;10125817;28;20035;-70
2021/06/02 06:35:28;;;;;;;9.02;2.53;;;;;;;;;;10130686;28;20130;-69
2021/06/02 06:40:28;;;;;;;9.25;2.92;;;;;;;;;;10131871;28;20444;-69
2021/06/02 06:45:25;;;;;;;6.82;2.40;;;;;;;;;;10139348;28;20046;-70
2021/06/02 06:50:21;;;;;;;5.22;2.25;;;;;;;;;;10137088;28;20165;-68
2021/06/02 06:55:19;;;;;;;6.53;1.80;;;;;;;;;;10140069;28;20058;-66
2021/06/02 07:00:17;;;;;;;6.63;2.20;;;;;;;;;;10157403;28;20074;-70
2021/06/02 07:05:13;;;;;;;5.25;2.00;;;;;;;;;;10151417;28;20073;-70
2021/06/02 07:10:12;;;;;;;7.65;2.22;;;;;;;;;;10134829;28;20491;-69
2021/06/02 07:15:09;;;;;;;7.20;1.98;;;;;;;;;;10136521;28;20078;-69
2021/06/02 07:20:08;;;;;;;5.10;1.92;;;;;;;;;;10131732;28;20556;-69
2021/06/02 07:25:06;;;;;;;6.15;1.85;;;;;;;;;;10147790;28;20120;-71
2021/06/02 07:30:04;;;;;;;5.50;2.05;;;;;;;;;;10145026;28;20141;-71
2021/06/02 07:35:00;;;;;;;6.07;2.25;;;;;;;;;;10146467;28;20081;-70
2021/06/02 07:39:56;;;;;;;4.68;2.35;;;;;;;;;;10127017;28;20133;-70
2021/06/02 07:44:53;;;;;;;9.05;2.20;;;;;;;;;;10143189;28;20488;-70
2021/06/02 07:49:50;;;;;;;11.07;2.83;;;;;;;;;;10150049;28;20477;-70
2021/06/02 07:54:46;;;;;;;7.80;2.10;;;;;;;;;;10152860;28;20041;-69
2021/06/02 07:59:43;;;;;;;4.30;1.80;;;;;;;;;;10146174;28;20539;-70
2021/06/02 08:04:39;;;;;;;5.18;2.03;;;;;;;;;;10149613;28;20100;-68
2021/06/02 08:09:36;;;;;;;6.40;2.17;;;;;;;;;;10150817;28;20052;-71
2021/06/02 08:14:33;;;;;;;6.57;2.05;;;;;;;;;;10152588;28;20404;-69
2021/06/02 08:19:29;;;;;;;6.88;1.65;;;;;;;;;;10143446;28;20039;-70
2021/06/02 08:24:26;;;;;;;4.43;1.63;;;;;;;;;;10148722;28;20070;-70
2021/06/02 08:29:22;;;;;;;6.78;2.53;;;;;;;;;;10166676;28;20046;-70
2021/06/02 08:34:18;;;;;;;6.93;1.88;;;;;;;;;;10145809;28;20085;-69
2021/06/02 08:39:15;;;;;;;7.35;2.33;;;;;;;;;;10135940;28;20177;-69
2021/06/02 08:44:11;;;;;;;4.15;1.90;;;;;;;;;;10146361;28;20069;-71
2021/06/02 08:49:08;;;;;;;7.05;1.70;;;;;;;;;;10151044;28;20168;-68
2021/06/02 08:54:05;;;;;;;5.93;2.17;;;;;;;;;;10148678;28;20061;-70
2021/06/02 08:59:02;;;;;;;3.78;1.80;;;;;;;;;;10121770;28;21020;-70
2021/06/02 09:04:00;;;;;;;4.57;1.55;;;;;;;;;;10146282;28;20042;-66
2021/06/02 09:08:57;;;;;;;3.75;1.80;;;;;;;;;;10145827;28;20424;-69
2021/06/02 09:13:53;;;;;;;4.65;1.40;;;;;;;;;;10149004;28;20049;-70
2021/06/02 09:19:05;;;;;;;8.88;2.67;;;;;;;;;;10157286;28;20066;-68
2021/06/02 09:24:01;;;;;;;4.00;1.40;;;;;;;;;;10153200;28;20093;-70
2021/06/02 09:29:12;;;;;;;4.25;1.70;;;;;;;;;;10159258;28;20389;-66
2021/06/02 09:34:22;;;;;;;6.13;1.73;;;;;;;;;;10130627;28;20268;-70
2021/06/02 09:39:21;;;;;;;7.20;2.05;;;;;;;;;;10130683;28;20134;-69
2021/06/02 09:44:18;;;;;;;4.68;1.67;;;;;;;;;;10131624;28;20537;-70
2021/06/02 09:49:16;;;;;;;6.28;2.17;;;;;;;;;;10136868;28;20045;-69
2021/06/02 09:54:12;;;;;;;6.32;1.88;;;;;;;;;;10135263;28;20038;-70
2021/06/02 09:59:11;;;;;;;5.03;1.17;;;;;;;;;;10125378;28;20591;-69
2021/06/02 10:04:10;;;;;;;6.07;1.90;;;;;;;;;;10151247;28;20088;-69
2021/06/02 10:09:07;;;;;;;6.47;1.73;;;;;;;;;;10161733;28;20078;-69
2021/06/02 10:14:10;;;;;;;5.32;1.60;;;;;;;;;;10144784;28;20080;-69
2021/06/02 10:19:06;;;;;;;6.05;1.70;;;;;;;;;;10144512;28;20537;-70
2021/06/02 10:24:03;;;;;;;6.22;1.35;;;;;;;;;;10138205;28;20050;-68
2021/06/02 10:28:59;;;;;;;5.15;1.58;;;;;;;;;;10135694;28;20096;-70
2021/06/02 10:33:56;;;;;;;4.22;1.58;;;;;;;;;;10142229;28;20129;-69
2021/06/02 10:38:57;;;;;;;3.35;1.52;;;;;;;;;;10130758;28;20070;-70
2021/06/02 10:43:57;;;;;;;4.10;1.55;;;;;;;;;;10137527;28;20077;-69
2021/06/02 10:48:55;;;;;;;3.92;1.40;;;;;;;;;;10147813;28;20138;-70
2021/06/02 10:54:04;;;;;;;5.28;1.63;;;;;;;;;;10130158;28;20058;-70
2021/06/02 10:59:01;;;;;;;3.95;1.42;;;;;;;;;;10130592;28;20074;-70
2021/06/02 11:04:06;;;;;;;4.53;1.60;;;;;;;;;;10137095;28;20046;-68
2021/06/02 11:09:06;;;;;;;11.52;2.58;;;;;;;;;;10133144;28;20624;-68
2021/06/02 11:19:12;;;;;;;5.47;1.58;;;;;;;;;;10135650;28;20042;-70
2021/06/02 11:24:28;;;;;;;5.68;1.67;;;;;;;;;;10139446;28;20057;-71
2021/06/02 11:29:24;;;;;;;7.10;2.03;;;;;;;;;;10136862;28;20050;-68
2021/06/02 11:34:28;;;;;;;4.70;1.88;;;;;;;;;;10140115;28;20069;-69
2021/06/02 11:39:24;;;;;;;8.40;2.08;;;;;;;;;;10142160;28;20070;-69
2021/06/02 11:44:21;;;;;;;4.95;1.95;;;;;;;;;;10144908;28;20054;-70
2021/06/02 11:49:43;;;;;;;3.45;2.03;;;;;;;;;;10133844;28;20055;-71
2021/06/02 11:54:50;;;;;;;3.50;1.73;;;;;;;;;;10121271;28;20165;-69
2021/06/02 11:59:47;;;;;;;5.97;2.03;;;;;;;;;;10130472;28;20465;-69
2021/06/02 12:04:43;;;;;;;7.53;2.10;;;;;;;;;;10132685;28;20047;-69
2021/06/02 12:09:55;;;;;;;6.07;2.00;;;;;;;;;;10131685;28;20043;-69
2021/06/02 12:14:52;;;;;;;6.40;2.17;;;;;;;;;;10130495;28;20584;-69
2021/06/02 12:19:48;;;;;;;4.53;2.00;;;;;;;;;;10131302;28;20042;-67
2021/06/02 12:25:00;;;;;;;5.15;2.10;;;;;;;;;;10131994;28;20046;-68
2021/06/02 12:30:06;;;;;;;5.57;2.08;;;;;;;;;;10133198;28;20137;-69
2021/06/02 12:35:12;;;;;;;6.13;2.53;;;;;;;;;;10127980;28;20561;-68
2021/06/02 12:40:09;;;;;;;5.25;2.10;;;;;;;;;;10129332;28;20073;-69
2021/06/02 12:45:05;;;;;;;3.60;2.15;;;;;;;;;;10141051;28;20476;-70
2021/06/02 12:50:02;;;;;;;4.88;2.00;;;;;;;;;;10132631;28;20649;-65
2021/06/02 12:55:07;;;;;;;8.68;2.28;;;;;;;;;;10153760;28;20046;-69
2021/06/02 13:00:04;;;;;;;6.22;1.98;;;;;;;;;;10144739;28;20079;-69
2021/06/02 13:05:00;;;;;;;6.43;2.50;;;;;;;;;;10135016;28;20054;-69
2021/06/02 13:09:58;;;;;;;5.25;2.10;;;;;;;;;;10132099;28;20137;-68
2021/06/02 13:14:54;;;;;;;4.78;2.50;;;;;;;;;;10127875;28;20105;-69
2021/06/02 13:19:51;;;;;;;5.85;3.08;;;;;;;;;;10120766;28;20090;-66
2021/06/02 13:24:47;;;;;;;5.47;2.72;;;;;;;;;;10129577;28;20495;-68
2021/06/02 13:30:02;;;;;;;7.22;2.67;;;;;;;;;;10125241;28;20043;-70
2021/06/02 13:35:18;;;;;;;6.15;2.75;;;;;;;;;;10129652;28;20082;-68
2021/06/02 13:40:17;;;;;;;6.40;2.70;;;;;;;;;;10132306;28;20050;-67
2021/06/02 13:45:13;;;;;;;5.65;2.80;;;;;;;;;;10136071;28;20080;-69
2021/06/02 13:50:10;;;;;;;6.63;2.90;;;;;;;;;;10134353;28;20074;-70
2021/06/02 13:55:09;;;;;;;6.57;2.53;;;;;;;;;;10140105;28;20085;-69
2021/06/02 14:00:06;;;;;;;4.75;2.30;;;;;;;;;;10134632;28;20135;-69
2021/06/02 14:05:04;;;;;;;6.05;2.45;;;;;;;;;;10130139;28;20086;-66
2021/06/02 14:10:02;;;;;;;6.07;2.40;;;;;;;;;;10123337;28;20086;-70
2021/06/02 14:14:59;;;;;;;5.90;2.40;;;;;;;;;;10137946;28;20108;-70
2021/06/02 14:19:55;;;;;;;4.75;2.30;;;;;;;;;;10136948;28;20066;-67
2021/06/02 14:24:51;;;;;;;6.75;2.33;;;;;;;;;;10142555;28;20089;-68
2021/06/02 14:29:48;;;;;;;5.07;2.15;;;;;;;;;;10139426;28;20153;-69
2021/06/02 14:34:44;;;;;;;4.18;2.25;;;;;;;;;;10125871;28;20093;-69
2021/06/02 14:39:40;;;;;;;3.75;2.00;;;;;;;;;;10135480;28;20058;-69
2021/06/02 14:44:37;;;;;;;4.60;2.30;;;;;;;;;;10135723;28;20047;-69
2021/06/02 14:49:34;;;;;;;3.33;2.10;;;;;;;;;;10131407;28;20050;-70
2021/06/02 14:54:31;;;;;;;6.47;2.38;;;;;;;;;;10126870;28;20481;-69
2021/06/02 14:59:27;;;;;;;5.10;2.17;;;;;;;;;;10130437;28;20097;-69
2021/06/02 15:04:23;;;;;;;8.63;2.70;;;;;;;;;;10127224;28;20051;-69
2021/06/02 15:09:20;;;;;;;8.88;1.98;;;;;;;;;;10129946;28;20073;-67
2021/06/02 15:14:18;;;;;;;5.13;2.70;;;;;;;;;;10134030;28;20136;-70
2021/06/02 15:19:17;;;;;;;4.45;2.20;;;;;;;;;;10135125;28;20038;-69
2021/06/02 15:24:13;;;;;;;4.20;2.20;;;;;;;;;;10130298;28;20045;-67
2021/06/02 15:29:10;;;;;;;5.95;1.98;;;;;;;;;;10133740;28;20046;-67
2021/06/02 15:34:07;;;;;;;5.38;2.22;;;;;;;;;;10127150;28;20386;-71
2021/06/02 15:39:04;;;;;;;4.22;2.20;;;;;;;;;;10145808;28;20088;-69
2021/06/02 15:44:00;;;;;;;6.13;2.45;;;;;;;;;;10150843;28;20563;-68
2021/06/02 15:48:57;;;;;;;4.53;2.33;;;;;;;;;;10138298;28;20814;-69
2021/06/02 15:53:53;;;;;;;4.38;2.20;;;;;;;;;;10137597;28;20047;-66
2021/06/02 15:58:50;;;;;;;5.35;2.10;;;;;;;;;;10142283;28;20042;-73
2021/06/02 16:03:47;;;;;;;9.13;3.22;;;;;;;;;;10134866;28;20450;-69
2021/06/02 16:08:43;;;;;;;5.90;2.40;;;;;;;;;;10135645;28;20049;-67
2021/06/02 16:13:39;;;;;;;4.63;2.63;;;;;;;;;;10141028;28;20064;-68
2021/06/02 16:18:36;;;;;;;3.30;2.10;;;;;;;;;;10125311;28;20108;-68
2021/06/02 16:23:32;;;;;;;5.15;2.55;;;;;;;;;;10140152;28;20054;-69
2021/06/02 16:28:29;;;;;;;5.68;2.80;;;;;;;;;;10134720;28;20129;-69
2021/06/02 16:33:25;;;;;;;5.10;2.70;;;;;;;;;;10136692;28;20074;-69
2021/06/02 16:38:22;;;;;;;4.55;2.53;;;;;;;;;;10131250;28;20254;-71
2021/06/02 16:43:18;;;;;;;5.70;2.75;;;;;;;;;;10141165;28;20149;-66
2021/06/02 16:48:15;;;;;;;9.52;2.90;;;;;;;;;;10135999;28;20148;-67
2021/06/02 16:53:11;;;;;;;6.95;2.45;;;;;;;;;;10136738;28;20071;-70
2021/06/02 16:58:08;;;;;;;8.57;2.85;;;;;;;;;;10131369;28;20097;-70
2021/06/02 17:03:04;;;;;;;5.50;2.60;;;;;;;;;;10136517;28;20121;-70
2021/06/02 17:08:03;;;;;;;6.28;3.13;;;;;;;;;;10132049;28;20042;-69
2021/06/02 17:13:01;;;;;;;8.27;3.05;;;;;;;;;;10126837;28;20050;-68
2021/06/02 17:17:58;;;;;;;5.57;2.78;;;;;;;;;;10139715;28;20112;-68
2021/06/02 17:22:55;;;;;;;7.25;2.63;;;;;;;;;;10136105;28;20070;-69
2021/06/02 17:27:52;;;;;;;6.38;3.35;;;;;;;;;;10135411;28;20097;-69
2021/06/02 17:32:50;;;;;;;5.20;2.85;;;;;;;;;;10137526;28;20501;-68
2021/06/02 17:37:47;;;;;;;7.93;3.30;;;;;;;;;;10137024;28;20050;-69
2021/06/02 17:42:44;;;;;;;4.18;2.67;;;;;;;;;;10127235;28;20113;-69
2021/06/02 17:47:41;;;;;;;8.02;3.53;;;;;;;;;;10138635;28;20466;-69
2021/06/02 17:52:41;;;;;;;6.50;2.92;;;;;;;;;;10141615;28;20570;-68
2021/06/02 17:57:39;;;;;;;5.20;3.10;;;;;;;;;;10142943;28;20103;-69
2021/06/02 18:02:37;;;;;;;4.68;2.88;;;;;;;;;;10142856;28;20774;-69
2021/06/02 18:07:33;;;;;;;4.80;3.05;;;;;;;;;;10141299;28;20080;-68
2021/06/02 18:12:30;;;;;;;6.05;3.05;;;;;;;;;;10144747;28;20042;-69
2021/06/02 18:17:29;;;;;;;9.30;3.35;;;;;;;;;;10145305;28;20046;-69
2021/06/02 18:22:27;;;;;;;4.63;2.58;;;;;;;;;;10137224;28;20088;-69
2021/06/02 18:27:24;;;;;;;5.78;3.13;;;;;;;;;;10142550;28;20118;-69
2021/06/02 18:32:22;;;;;;;6.53;3.50;;;;;;;;;;10156151;28;20469;-69
2021/06/02 18:37:18;;;;;;;7.15;3.20;;;;;;;;;;10160470;28;20136;-69
2021/06/02 18:42:15;;;;;;;6.88;3.75;;;;;;;;;;10155585;28;20129;-69
2021/06/02 18:47:12;;;;;;;6.75;4.15;;;;;;;;;;10160201;28;20134;-68
2021/06/02 18:52:08;;;;;;;7.60;4.28;;;;;;;;;;10160949;28;20039;-69
2021/06/02 18:57:05;;;;;;;7.35;3.75;;;;;;;;;;10153601;28;20054;-69
2021/06/02 19:02:01;;;;;;;6.15;3.33;;;;;;;;;;10169789;28;20137;-68
2021/06/02 19:06:58;;;;;;;7.82;3.58;;;;;;;;;;10147856;28;20051;-68
2021/06/02 19:11:54;;;;;;;6.10;3.80;;;;;;;;;;10162385;28;20062;-68
2021/06/02 19:16:51;;;;;;;6.88;4.22;;;;;;;;;;10145375;28;20072;-69
2021/06/02 19:21:47;;;;;;;8.82;3.40;;;;;;;;;;10154217;28;20043;-68
2021/06/02 19:26:43;;;;;;;6.63;3.90;;;;;;;;;;10146498;28;20423;-69
2021/06/02 19:31:40;;;;;;;6.85;4.10;;;;;;;;;;10134958;28;20074;-68
2021/06/02 19:36:36;;;;;;;5.93;3.60;;;;;;;;;;10146567;28;20105;-68
2021/06/02 19:41:33;;;;;;;6.65;3.47;;;;;;;;;;10138357;28;20094;-69
2021/06/02 19:46:30;;;;;;;9.63;3.70;;;;;;;;;;10155454;28;20104;-69
2021/06/02 19:51:26;;;;;;;8.35;4.13;;;;;;;;;;10142330;28;20046;-69
2021/06/02 19:56:29;;;;;;;6.90;3.88;;;;;;;;;;10146686;28;20046;-69
2021/06/02 20:01:26;;;;;;;7.20;3.50;;;;;;;;;;10153289;28;20050;-67
2021/06/02 20:06:23;;;;;;;9.32;4.32;;;;;;;;;;10132606;28;20137;-69
2021/06/02 20:11:19;;;;;;;7.75;3.75;;;;;;;;;;10150953;28;20096;-67
2021/06/02 20:16:15;;;;;;;5.22;3.80;;;;;;;;;;10135126;28;20160;-68
2021/06/02 20:21:12;;;;;;;6.53;3.70;;;;;;;;;;10149939;28;20873;-70
2021/06/02 20:26:10;;;;;;;9.13;4.18;;;;;;;;;;10121427;28;20125;-73
2021/06/02 20:36:21;;;;;;;7.28;4.53;;;;;;;;;;10142132;28;20057;-73
2021/06/02 20:41:20;;;;;;;7.28;4.75;;;;;;;;;;10159594;28;20108;-72
2021/06/02 20:46:17;;;;;;;13.02;5.20;;;;;;;;;;10158019;28;20042;-74
2021/06/02 20:51:14;;;;;;;5.40;3.63;;;;;;;;;;10156626;28;20049;-73
2021/06/02 20:56:10;;;;;;;7.32;4.55;;;;;;;;;;10151680;28;20185;-72
2021/06/02 21:01:07;;;;;;;5.55;4.07;;;;;;;;;;10139325;28;20142;-72
2021/06/02 21:06:03;;;;;;;6.60;4.25;;;;;;;;;;10154818;28;20038;-72
2021/06/02 21:11:00;;;;;;;7.63;3.78;;;;;;;;;;10145352;28;20049;-72
2021/06/02 21:15:57;;;;;;;6.53;4.70;;;;;;;;;;10133471;28;20046;-74
2021/06/02 21:20:55;;;;;;;8.50;4.20;;;;;;;;;;10129105;28;20054;-74
2021/06/02 21:25:52;;;;;;;6.03;3.72;;;;;;;;;;10122464;28;20058;-73
2021/06/02 21:30:51;;;;;;;9.10;4.45;;;;;;;;;;10142506;28;20042;-75
2021/06/02 21:35:51;;;;;;;4.95;3.63;;;;;;;;;;10139538;28;20072;-73
2021/06/02 21:40:48;;;;;;;7.43;4.10;;;;;;;;;;10154831;28;20046;-73
2021/06/02 21:45:49;;;;;;;5.05;3.60;;;;;;;;;;10150787;28;20042;-72
2021/06/02 21:50:46;;;;;;;7.05;3.63;;;;;;;;;;10151604;28;20102;-73
2021/06/02 21:55:42;;;;;;;8.13;3.90;;;;;;;;;;10157986;28;20050;-73
2021/06/02 22:00:40;;;;;;;7.93;4.13;;;;;;;;;;10161025;28;20725;-72
2021/06/02 22:05:37;;;;;;;9.30;3.85;;;;;;;;;;10156342;28;20057;-71
2021/06/02 22:10:34;;;;;;;8.00;4.03;;;;;;;;;;10156881;28;20455;-71
2021/06/02 22:15:30;;;;;;;5.80;3.50;;;;;;;;;;10149872;28;20178;-71
2021/06/02 22:20:26;;;;;;;5.10;3.40;;;;;;;;;;10147360;28;20129;-72
2021/06/02 22:25:23;;;;;;;6.38;3.92;;;;;;;;;;10145018;28;20076;-71
2021/06/02 22:30:20;;;;;;;6.63;3.90;;;;;;;;;;10147265;28;20467;-71
2021/06/02 22:35:17;;;;;;;6.75;4.07;;;;;;;;;;10148832;28;20556;-71
2021/06/02 22:40:16;;;;;;;6.20;3.40;;;;;;;;;;10156650;28;20038;-72
2021/06/02 22:45:13;;;;;;;5.88;3.42;;;;;;;;;;10154325;28;20077;-72
2021/06/02 22:50:11;;;;;;;5.47;3.55;;;;;;;;;;10146847;28;20145;-71
2021/06/02 22:55:08;;;;;;;6.85;4.10;;;;;;;;;;10143823;28;20408;-71
2021/06/02 23:00:08;;;;;;;5.95;3.33;;;;;;;;;;10145242;28;20138;-70
2021/06/02 23:05:05;;;;;;;7.20;4.07;;;;;;;;;;10153896;28;20058;-71
2021/06/02 23:10:03;;;;;;;5.22;3.67;;;;;;;;;;10146313;28;20575;-72
2021/06/02 23:14:59;;;;;;;8.30;3.60;;;;;;;;;;10151156;28;20133;-72
2021/06/02 23:19:57;;;;;;;6.63;4.43;;;;;;;;;;10131681;28;20051;-71
2021/06/02 23:24:54;;;;;;;6.68;3.78;;;;;;;;;;10146887;28;20054;-71
2021/06/02 23:29:50;;;;;;;6.93;3.63;;;;;;;;;;10142022;28;20035;-72
2021/06/02 23:34:46;;;;;;;4.88;3.30;;;;;;;;;;10145794;28;20138;-73
2021/06/02 23:39:43;;;;;;;5.18;3.75;;;;;;;;;;10152206;28;20046;-73
2021/06/02 23:44:40;;;;;;;6.97;4.15;;;;;;;;;;10149710;28;20073;-70
2021/06/02 23:49:37;;;;;;;5.60;3.72;;;;;;;;;;10141327;28;20042;-71
2021/06/02 23:54:33;;;;;;;6.68;3.95;;;;;;;;;;10142460;28;20496;-71
2021/06/02 23:59:29;;;;;;;5.25;3.60;;;;;;;;;;10142108;28;20088;-71
